Time;durP1;ratioP1;P1;durP2;ratioP2;P2;SDS_P1;SDS_P2;PMS_P1;PMS_P2;Temp;Humidity;BMP_temperature;BMP_pressure;BME280_temperature;BME280_humidity;BME280_pressure;Samples;Min_cycle;Max_cycle;Signal;HPM_P1;HPM_P2
2021/04/05 00:01:46;;;;;;;33.22;8.98;;;7.00;99.90;;;7.09;100.00;101089.91;5027257;28;20041;-63
2021/04/05 00:04:12;;;;;;;32.13;7.85;;;7.00;99.90;;;7.02;100.00;101083.44;5017372;28;20057;-63
2021/04/05 00:06:38;;;;;;;36.42;8.13;;;7.10;99.90;;;7.04;100.00;101078.72;5029890;28;20543;-66
2021/04/05 00:09:06;;;;;;;30.92;8.30;;;7.10;99.90;;;7.15;100.00;101064.81;5024156;28;20492;-67
2021/04/05 00:11:32;;;;;;;32.38;7.50;;;7.10;99.90;;;7.27;100.00;101063.44;5002072;28;20038;-62
2021/04/05 00:13:58;;;;;;;24.60;7.45;;;7.20;99.90;;;7.26;100.00;101067.16;5010858;28;20151;-62
2021/04/05 00:16:24;;;;;;;40.20;8.32;;;7.20;99.90;;;7.39;100.00;101072.03;5001796;28;20552;-65
2021/04/05 00:18:50;;;;;;;37.63;8.93;;;7.20;99.90;;;7.49;100.00;101076.22;5004752;28;20493;-64
2021/04/05 00:21:21;;;;;;;27.83;8.55;;;7.30;99.90;;;7.49;100.00;101076.22;4980926;28;20041;-63
2021/04/05 00:23:49;;;;;;;21.10;7.43;;;7.30;99.90;;;7.52;100.00;101088.59;5014556;28;20048;-64
2021/04/05 00:26:16;;;;;;;30.38;9.05;;;7.30;99.90;;;7.56;100.00;101069.09;4997195;28;20180;-62
2021/04/05 00:28:41;;;;;;;31.33;8.35;;;7.50;99.90;;;7.70;100.00;101066.66;5015428;28;21744;-61
2021/04/05 00:31:08;;;;;;;33.13;7.88;;;7.60;99.90;;;7.77;100.00;101056.84;5021324;28;20030;-64
2021/04/05 00:33:34;;;;;;;40.75;8.00;;;7.70;99.90;;;7.85;100.00;101051.34;5022898;28;20157;-63
2021/04/05 00:36:00;;;;;;;33.15;8.48;;;7.80;99.90;;;7.88;99.04;101038.31;4991918;28;20057;-64
2021/04/05 00:38:26;;;;;;;27.55;9.82;;;7.90;99.90;;;7.96;98.24;101048.25;5005467;28;20091;-68
2021/04/05 00:41:10;;;;;;;25.17;7.53;;;7.90;99.90;;;7.83;97.77;101031.72;5012593;28;20038;-63
2021/04/05 00:43:38;;;;;;;25.05;8.75;;;7.90;99.90;;;7.80;97.40;101021.22;5016758;28;20080;-64
2021/04/05 00:46:06;;;;;;;42.45;8.90;;;7.80;99.90;;;7.89;97.20;101036.44;5014180;28;20029;-63
2021/04/05 00:48:33;;;;;;;26.45;9.13;;;7.80;99.90;;;7.92;96.94;101028.78;5019883;28;20026;-62
2021/04/05 00:51:17;;;;;;;22.23;8.95;;;7.80;99.90;;;7.81;96.27;101017.50;4999839;28;20033;-63
2021/04/05 00:53:45;;;;;;;20.73;6.85;;;7.90;99.90;;;7.82;95.86;101013.75;5009167;28;20037;-63
2021/04/05 00:56:22;;;;;;;35.78;9.82;;;7.80;99.90;;;7.79;95.90;101014.97;5015976;28;20038;-65
2021/04/05 00:58:50;;;;;;;26.77;8.27;;;7.80;99.90;;;7.78;95.30;101020.59;5014881;28;20492;-64
2021/04/05 01:01:25;;;;;;;17.75;6.32;;;7.80;99.90;;;7.75;94.89;101007.38;5016905;28;20045;-64
2021/04/05 01:03:52;;;;;;;19.25;7.70;;;7.80;99.90;;;7.85;95.35;101008.84;5011183;28;20018;-66
2021/04/05 01:06:27;;;;;;;20.27;6.85;;;7.80;99.90;;;7.89;94.83;100993.06;5017043;28;20480;-64
2021/04/05 01:08:53;;;;;;;29.20;7.20;;;7.80;99.90;;;8.03;94.12;100992.28;5002691;28;20037;-63
2021/04/05 01:11:23;;;;;;;22.42;8.55;;;7.90;99.90;;;8.01;93.95;100980.81;5015350;28;20034;-64
2021/04/05 01:13:52;;;;;;;18.38;7.60;;;7.90;99.90;;;8.02;93.49;100958.06;5012772;28;20033;-67
2021/04/05 01:16:18;;;;;;;21.40;7.10;;;7.90;99.90;;;7.99;92.76;100951.16;5021650;28;20046;-65
2021/04/05 01:18:44;;;;;;;19.35;7.63;;;7.90;99.90;;;8.01;92.52;100942.84;5019918;28;20195;-63
2021/04/05 01:21:10;;;;;;;16.35;6.22;;;7.90;99.90;;;7.92;92.16;100952.03;5016121;28;20381;-69
2021/04/05 01:23:38;;;;;;;22.35;7.78;;;7.90;99.90;;;7.99;91.54;100950.31;5016173;28;20029;-66
2021/04/05 01:26:05;;;;;;;19.00;6.53;;;8.00;99.90;;;7.86;91.66;100939.22;5025272;28;20433;-62
2021/04/05 01:28:31;;;;;;;17.55;5.93;;;7.90;99.90;;;8.03;91.23;100938.06;5013472;28;20069;-61
2021/04/05 01:31:01;;;;;;;19.88;6.13;;;7.90;99.90;;;8.09;91.17;100940.06;5010514;28;20030;-62
2021/04/05 01:33:32;;;;;;;19.83;6.95;;;8.00;99.90;;;8.14;90.64;100932.22;5003605;28;20472;-62
2021/04/05 01:36:09;;;;;;;22.00;6.97;;;8.00;99.90;;;8.19;90.44;100924.38;5017642;28;20539;-64
2021/04/05 01:38:39;;;;;;;18.77;7.03;;;8.10;99.90;;;8.18;90.68;100916.44;5022730;28;20044;-64
2021/04/05 01:41:10;;;;;;;17.73;5.70;;;8.10;99.90;;;8.12;89.85;100918.03;5002420;28;20045;-62
2021/04/05 01:43:37;;;;;;;22.63;6.85;;;8.10;99.90;;;8.26;89.84;100910.94;5011714;28;20048;-62
2021/04/05 01:46:05;;;;;;;19.45;5.93;;;8.20;99.90;;;8.32;89.37;100902.94;5012636;28;20045;-63
2021/04/05 01:48:31;;;;;;;21.88;7.22;;;8.20;99.90;;;8.25;89.55;100907.38;5019142;28;20135;-63
2021/04/05 01:50:59;;;;;;;19.90;6.25;;;8.20;99.90;;;8.28;89.56;100896.16;5014573;28;20519;-62
2021/04/05 01:53:26;;;;;;;21.00;7.68;;;8.20;99.90;;;8.24;89.64;100902.97;5029644;28;20038;-66
2021/04/05 01:55:52;;;;;;;18.45;7.97;;;8.20;99.90;;;8.29;89.51;100897.84;5028460;28;20505;-62
2021/04/05 01:58:20;;;;;;;18.55;6.55;;;8.20;99.90;;;8.29;89.07;100887.00;5011854;28;21476;-65
2021/04/05 02:00:49;;;;;;;24.73;7.05;;;8.20;99.90;;;8.34;89.53;100873.78;5011484;28;20080;-62
2021/04/05 02:03:15;;;;;;;27.63;7.32;;;8.20;99.90;;;8.28;89.91;100863.63;5011142;28;20077;-66
2021/04/05 02:05:56;;;;;;;21.52;6.55;;;8.30;99.90;;;8.27;89.72;100872.78;5032069;28;20467;-65
2021/04/05 02:08:27;;;;;;;19.65;6.82;;;8.30;99.90;;;8.25;90.21;100858.56;5018283;28;20084;-63
2021/04/05 02:10:57;;;;;;;19.23;5.55;;;8.30;99.90;;;8.12;90.68;100849.41;4985250;28;20030;-65
2021/04/05 02:13:25;;;;;;;18.35;5.80;;;8.20;99.90;;;8.21;90.05;100849.13;5007023;28;20064;-66
2021/04/05 02:15:53;;;;;;;14.45;6.10;;;8.20;99.90;;;8.17;89.97;100839.66;5015827;28;20033;-63
2021/04/05 02:18:24;;;;;;;16.92;6.13;;;8.20;99.90;;;8.11;89.82;100845.00;5014909;28;20044;-66
2021/04/05 02:20:51;;;;;;;21.02;5.70;;;8.20;99.90;;;8.19;89.98;100837.63;5016024;28;20096;-65
2021/04/05 02:23:18;;;;;;;16.90;6.32;;;8.20;99.90;;;8.21;90.25;100824.72;5009405;28;20493;-64
2021/04/05 02:26:06;;;;;;;20.98;5.53;;;8.20;99.90;;;8.10;90.29;100830.59;5012339;28;20026;-64
2021/04/05 02:28:33;;;;;;;16.52;6.20;;;8.20;99.90;;;8.17;90.44;100817.13;5014822;28;20075;-64
2021/04/05 02:31:00;;;;;;;14.60;6.15;;;8.10;99.90;;;8.05;90.78;100814.03;5014987;28;20034;-64
2021/04/05 02:33:26;;;;;;;15.73;5.47;;;8.10;99.90;;;8.14;90.10;100815.63;5014286;28;20049;-65
2021/04/05 02:35:52;;;;;;;29.15;6.45;;;8.10;99.90;;;8.15;89.89;100805.63;5013121;28;20371;-63
2021/04/05 02:38:18;;;;;;;23.00;8.02;;;8.10;99.90;;;8.05;90.67;100802.34;5007340;28;20121;-63
2021/04/05 02:40:45;;;;;;;21.27;6.82;;;8.10;99.90;;;8.08;90.78;100802.00;5028682;28;20068;-65
2021/04/05 02:43:13;;;;;;;29.85;6.43;;;8.00;99.90;;;8.08;90.35;100797.41;4996270;28;20125;-62
2021/04/05 02:45:40;;;;;;;14.82;6.80;;;8.10;99.90;;;8.08;90.67;100789.28;5016202;28;20041;-65
2021/04/05 02:48:09;;;;;;;20.00;6.38;;;8.10;99.90;;;8.14;90.54;100777.69;5006870;28;20076;-64
2021/04/05 02:50:36;;;;;;;15.90;5.53;;;8.10;99.90;;;8.11;90.12;100775.38;5010786;28;20064;-62
2021/04/05 02:53:07;;;;;;;15.02;5.68;;;8.10;99.90;;;8.11;90.04;100775.38;5003721;28;20037;-63
2021/04/05 02:55:35;;;;;;;24.75;7.32;;;8.10;99.90;;;8.06;90.28;100760.66;5011027;28;20061;-62
2021/04/05 02:58:05;;;;;;;20.25;6.35;;;8.10;99.90;;;8.06;90.25;100761.50;5002157;28;20081;-64
2021/04/05 03:00:32;;;;;;;19.35;5.90;;;8.10;99.90;;;7.99;90.59;100749.75;5013274;28;20042;-65
2021/04/05 03:02:58;;;;;;;17.40;7.15;;;8.10;99.90;;;8.05;90.66;100754.41;5012746;28;20040;-64
2021/04/05 03:05:26;;;;;;;14.52;7.07;;;8.10;99.90;;;8.22;90.69;100752.38;5003840;28;20519;-62
2021/04/05 03:07:53;;;;;;;16.30;5.82;;;8.20;99.90;;;8.29;89.90;100740.56;5000775;28;20510;-64
2021/04/05 03:10:25;;;;;;;22.20;6.80;;;8.20;99.90;;;8.32;89.95;100734.81;5000103;28;20447;-64
2021/04/05 03:12:55;;;;;;;20.10;5.88;;;8.30;99.90;;;8.58;88.68;100738.84;5010889;28;20072;-63
2021/04/05 03:15:24;;;;;;;19.98;6.95;;;8.40;99.90;;;8.50;88.79;100730.84;5020318;28;20056;-63
2021/04/05 03:17:57;;;;;;;14.95;6.00;;;8.40;99.90;;;8.53;88.95;100733.19;5009926;28;20037;-61
2021/04/05 03:20:29;;;;;;;17.42;6.38;;;8.40;99.90;;;8.54;88.82;100729.44;5015837;28;20036;-63
2021/04/05 03:22:55;;;;;;;22.38;7.03;;;8.40;99.90;;;8.52;88.95;100716.06;5003255;28;20396;-63
2021/04/05 03:25:23;;;;;;;13.40;4.97;;;8.50;99.90;;;8.60;88.71;100715.94;5009754;28;20038;-65
2021/04/05 03:27:50;;;;;;;22.70;6.75;;;8.50;99.90;;;8.54;89.15;100715.88;5010627;28;20083;-64
2021/04/05 03:30:37;;;;;;;19.90;5.95;;;8.60;99.90;;;8.63;88.35;100714.72;5015734;28;20137;-63
2021/04/05 03:33:31;;;;;;;21.77;6.57;;;8.60;99.90;;;8.66;88.70;100719.78;5006893;28;20034;-61
2021/04/05 03:36:04;;;;;;;15.07;6.63;;;8.60;99.90;;;8.56;89.29;100702.97;5025201;28;20045;-63
2021/04/05 03:38:31;;;;;;;18.90;6.40;;;8.60;99.90;;;8.61;88.74;100706.78;5012054;28;20026;-63
2021/04/05 03:40:59;;;;;;;13.95;5.75;;;8.60;99.90;;;8.63;88.75;100693.88;5017286;28;20041;-62
2021/04/05 03:43:47;;;;;;;21.20;5.93;;;8.60;99.90;;;8.68;88.92;100696.84;5012830;28;20507;-62
2021/04/05 03:46:23;;;;;;;19.30;6.10;;;8.70;99.90;;;8.57;89.65;100693.81;5011284;28;20038;-64
2021/04/05 03:49:17;;;;;;;17.95;5.88;;;8.70;99.90;;;8.67;88.81;100694.34;5003916;28;20476;-63
2021/04/05 03:52:19;;;;;;;14.05;6.95;;;8.70;99.90;;;8.53;89.51;100687.06;5018222;28;20041;-62
2021/04/05 03:54:51;;;;;;;19.30;6.50;;;8.60;99.90;;;8.63;89.60;100676.75;5025906;28;20042;-64
2021/04/05 03:57:26;;;;;;;22.40;5.88;;;8.70;99.90;;;8.63;89.42;100674.03;5018693;28;20045;-62
2021/04/05 03:59:57;;;;;;;15.10;5.13;;;8.60;99.90;;;8.63;89.43;100676.75;5014702;28;20030;-64
2021/04/05 04:02:31;;;;;;;17.05;5.82;;;8.60;99.90;;;8.66;89.09;100670.94;5008539;28;20084;-63
2021/04/05 04:05:08;;;;;;;19.88;6.22;;;8.60;99.90;;;8.76;88.68;100659.75;5018549;28;20061;-64
2021/04/05 04:07:40;;;;;;;16.35;6.40;;;8.60;99.90;;;8.59;88.80;100653.72;5026645;28;20195;-65
2021/04/05 04:10:11;;;;;;;15.25;5.65;;;8.70;99.90;;;8.60;89.66;100655.41;5008234;28;20074;-64
2021/04/05 04:12:40;;;;;;;16.90;7.40;;;8.60;99.90;;;8.51;89.53;100645.72;5000758;28;20444;-63
2021/04/05 04:15:08;;;;;;;19.95;5.38;;;8.60;99.90;;;8.58;89.59;100630.34;5002687;28;20579;-65
2021/04/05 04:17:36;;;;;;;20.05;5.45;;;8.60;99.90;;;8.58;89.13;100630.34;5011741;28;20448;-62
2021/04/05 04:20:11;;;;;;;24.42;5.10;;;8.60;99.90;;;8.67;88.53;100618.34;5019653;28;20464;-63
2021/04/05 04:22:38;;;;;;;16.80;5.28;;;8.60;99.90;;;8.38;87.73;100706.91;5006416;28;20477;-64
2021/04/05 04:25:06;;;;;;;15.10;3.33;;;8.60;99.90;;;7.80;92.02;100693.34;5015533;28;20048;-64
2021/04/05 04:27:32;;;;;;;13.95;2.40;;;8.30;99.90;;;7.29;94.50;100698.63;5015764;28;20034;-65
2021/04/05 04:29:58;;;;;;;7.65;1.92;;;7.90;99.90;;;6.88;95.46;100712.44;5012942;28;20065;-64
2021/04/05 04:32:25;;;;;;;9.05;1.45;;;7.50;99.90;;;6.30;96.33;100706.72;5008100;28;20037;-66
2021/04/05 04:34:52;;;;;;;9.70;3.20;;;7.00;99.90;;;5.94;98.22;100718.00;5021474;28;20038;-66
2021/04/05 04:37:18;;;;;;;10.02;2.08;;;6.60;99.90;;;5.60;99.36;100714.69;5013595;28;20096;-66
2021/04/05 04:39:44;;;;;;;5.32;1.42;;;6.30;99.90;;;5.43;100.00;100720.09;5031008;28;20056;-67
2021/04/05 04:42:12;;;;;;;7.60;1.85;;;6.00;99.90;;;5.45;100.00;100728.88;5028535;28;20116;-67
2021/04/05 04:44:38;;;;;;;8.00;1.88;;;5.80;99.90;;;5.26;99.17;100736.47;5008561;28;20057;-66
2021/04/05 04:47:04;;;;;;;11.30;1.58;;;5.70;99.90;;;5.14;97.72;100732.41;5022700;28;20480;-66
2021/04/05 04:49:30;;;;;;;7.43;1.58;;;5.50;99.90;;;5.16;97.23;100723.16;4999885;28;20088;-66
2021/04/05 04:51:56;;;;;;;9.35;1.70;;;5.40;99.90;;;5.00;97.46;100729.38;5008103;28;20046;-66
2021/04/05 04:54:22;;;;;;;11.00;2.35;;;5.30;99.90;;;4.84;97.88;100723.13;4998358;28;20113;-64
2021/04/05 04:56:48;;;;;;;9.75;1.35;;;5.20;99.90;;;4.81;98.57;100718.91;5021767;28;20528;-64
2021/04/05 04:59:15;;;;;;;7.25;1.90;;;5.10;99.90;;;4.84;97.97;100706.94;5020015;28;20045;-65
2021/04/05 05:01:45;;;;;;;6.72;2.28;;;5.10;99.90;;;4.82;97.07;100700.88;5025750;28;20048;-65
2021/04/05 05:04:24;;;;;;;6.10;1.42;;;5.10;99.90;;;4.89;96.82;100688.41;5020839;28;20037;-65
2021/04/05 05:06:59;;;;;;;9.60;1.35;;;5.10;99.90;;;4.93;95.88;100695.16;5001987;28;20081;-65
2021/04/05 05:09:26;;;;;;;11.70;2.28;;;5.10;99.90;;;4.98;95.78;100703.56;5018844;28;20064;-65
2021/04/05 05:11:54;;;;;;;11.80;2.35;;;5.10;99.90;;;5.01;95.81;100714.03;5011522;28;20472;-65
2021/04/05 05:14:20;;;;;;;10.48;1.65;;;5.20;99.90;;;4.97;95.96;100709.97;5014399;28;20051;-65
2021/04/05 05:16:47;;;;;;;12.93;2.33;;;5.20;99.90;;;5.04;95.71;100694.81;5019830;28;20113;-64
2021/04/05 05:19:15;;;;;;;9.35;1.67;;;5.20;99.90;;;5.00;95.40;100704.25;5016950;28;20033;-65
2021/04/05 05:21:50;;;;;;;15.32;4.07;;;5.20;99.90;;;5.20;95.89;100692.09;5015028;28;20072;-63
2021/04/05 05:24:23;;;;;;;10.55;2.28;;;5.30;99.90;;;5.20;96.38;100697.50;5004360;28;20496;-65
2021/04/05 05:26:50;;;;;;;13.18;2.42;;;5.30;99.90;;;5.18;96.47;100704.94;5012277;28;20036;-65
2021/04/05 05:29:18;;;;;;;7.97;1.52;;;5.40;99.90;;;5.11;97.22;100714.72;5011963;28;20057;-67
2021/04/05 05:31:45;;;;;;;10.15;1.95;;;5.30;99.90;;;5.05;98.82;100720.78;5017736;28;20124;-64
2021/04/05 05:34:19;;;;;;;16.67;2.78;;;5.30;99.90;;;5.03;98.56;100712.00;5018993;28;20042;-66
2021/04/05 05:36:46;;;;;;;9.15;2.60;;;5.30;99.90;;;4.98;97.16;100719.75;5013498;28;20103;-64
2021/04/05 05:39:15;;;;;;;8.52;1.13;;;5.20;99.90;;;4.93;94.13;100719.44;5031616;28;20045;-63
2021/04/05 05:42:34;;;;;;;10.07;2.35;;;5.20;99.90;;;4.85;93.62;100735.59;5019890;28;20053;-64
2021/04/05 05:45:08;;;;;;;8.05;2.78;;;5.10;99.90;;;4.63;94.37;100740.59;5014902;28;20033;-66
2021/04/05 05:47:48;;;;;;;6.35;1.25;;;5.00;99.90;;;4.64;95.34;100736.88;5006354;28;20045;-64
2021/04/05 05:50:56;;;;;;;12.30;1.42;;;4.90;99.90;;;4.52;94.69;100758.91;5002039;28;20084;-67
2021/04/05 05:54:02;;;;;;;7.35;1.15;;;4.80;99.90;;;4.49;95.37;100757.41;5010115;28;20077;-64
2021/04/05 05:56:50;;;;;;;9.02;1.50;;;4.70;99.90;;;4.32;98.02;100761.03;5014954;28;20099;-65
2021/04/05 05:59:48;;;;;;;8.77;2.05;;;4.70;99.90;;;4.26;99.66;100783.25;5021870;28;20045;-64
2021/04/05 06:02:48;;;;;;;7.68;1.20;;;4.50;99.90;;;4.13;100.00;100799.00;5018974;28;20042;-64
2021/04/05 06:06:08;;;;;;;6.88;1.65;;;4.40;99.90;;;3.93;100.00;100760.69;5018016;28;20038;-63
2021/04/05 06:09:05;;;;;;;11.57;1.92;;;4.30;99.90;;;3.83;100.00;100809.28;5014708;28;20073;-65
2021/04/05 06:11:57;;;;;;;10.38;2.33;;;4.20;99.90;;;3.81;100.00;100811.28;5020733;28;20116;-63
2021/04/05 06:14:52;;;;;;;9.65;1.70;;;4.10;99.90;;;3.68;100.00;100810.84;5005040;28;20045;-63
2021/04/05 06:17:36;;;;;;;10.40;2.80;;;4.00;99.90;;;3.49;100.00;100811.88;5012450;28;20488;-64
2021/04/05 06:20:11;;;;;;;20.30;2.42;;;3.90;99.90;;;3.60;99.83;100824.22;5017843;28;20053;-63
2021/04/05 06:23:06;;;;;;;;;;;3.80;99.90;;;3.60;99.14;100833.16;5021500;28;20041;-64
2021/04/05 06:26:08;;;;;;;12.70;2.88;;;3.80;99.90;;;3.63;99.20;100829.28;5017166;28;19914;-63
2021/04/05 06:29:03;;;;;;;9.65;2.40;;;3.80;99.90;;;3.54;94.99;100847.22;5018065;28;20100;-64
2021/04/05 06:31:50;;;;;;;20.92;3.47;;;3.80;99.90;;;3.67;93.13;100846.81;5009267;28;20041;-62
2021/04/05 06:34:34;;;;;;;21.27;2.45;;;3.80;99.90;;;3.69;91.90;100862.81;5014675;28;20752;-61
2021/04/05 06:37:46;;;;;;;15.50;2.80;;;3.80;99.90;;;3.63;90.48;100901.94;5024420;28;20331;-64
2021/04/05 06:40:17;;;;;;;10.90;1.98;;;3.80;99.90;;;3.54;89.05;100876.81;5015265;28;20324;-65
2021/04/05 06:43:26;;;;;;;16.27;2.55;;;3.70;99.90;;;3.50;89.02;100894.25;5011278;28;20033;-62
2021/04/05 06:46:10;;;;;;;19.83;3.00;;;3.70;99.90;;;3.34;91.03;100899.50;5016582;28;20054;-63
2021/04/05 06:48:59;;;;;;;17.70;2.80;;;3.60;99.90;;;3.15;90.62;100924.69;5012002;28;20235;-62
2021/04/05 06:51:59;;;;;;;7.97;3.25;;;3.50;99.90;;;3.04;89.12;100897.16;5008235;28;20308;-65
2021/04/05 06:54:56;;;;;;;12.75;1.90;;;3.30;99.90;;;3.09;87.78;100900.22;5016086;28;20038;-65
2021/04/05 06:58:01;;;;;;;9.73;2.22;;;3.30;99.90;;;3.09;86.53;100911.81;5018016;28;20046;-62
2021/04/05 07:01:00;;;;;;;9.27;1.58;;;3.30;99.90;;;3.16;83.96;100890.56;5010426;28;20532;-64
2021/04/05 07:03:46;;;;;;;10.25;2.22;;;3.30;99.90;;;3.26;83.88;100897.56;4997794;28;20054;-62
2021/04/05 07:06:27;;;;;;;23.95;3.42;;;3.40;99.90;;;3.31;83.87;100902.47;5010253;28;20030;-66
2021/04/05 07:09:17;;;;;;;18.52;3.40;;;3.50;99.90;;;3.43;83.01;100903.09;5016675;28;20045;-65
2021/04/05 07:12:09;;;;;;;7.88;1.73;;;3.50;99.90;;;3.63;80.42;100904.63;5012832;28;20053;-63
2021/04/05 07:15:31;;;;;;;14.93;2.17;;;3.70;99.90;;;3.79;79.08;100918.25;5015593;28;20041;-65
2021/04/05 07:18:40;;;;;;;14.60;1.77;;;3.80;99.90;;;3.93;76.97;100901.56;5021427;28;20373;-61
2021/04/05 07:21:40;;;;;;;11.00;2.30;;;4.00;99.90;;;4.04;74.34;100902.31;5014466;28;20393;-63
2021/04/05 07:24:38;;;;;;;10.20;1.92;;;4.10;99.90;;;4.11;74.16;100914.13;5025754;28;20115;-65
2021/04/05 07:27:54;;;;;;;9.55;1.55;;;4.20;99.90;;;4.21;74.92;100920.25;5012907;28;20040;-64
2021/04/05 07:30:45;;;;;;;9.25;2.72;;;4.30;99.90;;;4.22;75.01;100924.66;5018044;28;20088;-67
2021/04/05 07:33:36;;;;;;;8.68;2.33;;;4.40;99.90;;;4.31;78.25;100923.72;5030830;28;20067;-66
2021/04/05 07:36:58;;;;;;;8.90;1.70;;;4.40;99.90;;;4.26;78.64;100936.81;5001946;28;20042;-70
2021/04/05 07:39:41;;;;;;;10.80;2.85;;;4.40;99.90;;;4.35;75.93;100933.19;5028331;28;20044;-67
2021/04/05 07:42:36;;;;;;;4.03;0.80;;;4.50;99.90;;;4.19;69.11;100935.75;5020882;28;20049;-64
2021/04/05 07:45:08;;;;;;;6.10;1.80;;;4.50;99.90;;;4.43;69.51;100924.28;5005029;28;20579;-65
2021/04/05 07:48:32;;;;;;;4.88;1.02;;;4.50;99.90;;;4.44;65.29;100920.59;5031118;28;20053;-66
2021/04/05 07:51:43;;;;;;;5.35;1.70;;;4.60;99.90;;;4.62;63.29;100932.19;5021752;28;20045;-63
2021/04/05 07:54:11;;;;;;;4.25;1.50;;;4.70;99.90;;;4.66;62.19;100931.69;5015558;28;20060;-62
2021/04/05 07:57:20;;;;;;;5.57;1.60;;;4.80;99.90;;;4.62;62.71;100946.50;4992712;28;20034;-61
2021/04/05 08:00:04;;;;;;;11.45;2.20;;;4.80;99.90;;;4.59;68.57;100967.53;5022246;28;20125;-62
2021/04/05 08:02:48;;;;;;;3.63;1.40;;;4.90;99.90;;;4.19;76.77;100970.75;5017165;28;20482;-62
2021/04/05 08:05:40;;;;;;;8.68;2.97;;;4.70;99.90;;;3.96;79.62;100965.84;5021650;28;20029;-63
2021/04/05 08:08:17;;;;;;;9.60;1.85;;;4.50;99.90;;;3.81;83.11;100988.97;5011739;28;20508;-61
2021/04/05 08:10:49;;;;;;;3.22;1.00;;;4.30;99.90;;;3.72;82.79;100994.41;5012515;28;20033;-63
2021/04/05 08:13:51;;;;;;;4.25;1.50;;;4.20;99.90;;;3.69;80.31;101005.47;5025263;28;20033;-61
2021/04/05 08:16:45;;;;;;;4.60;0.90;;;4.10;99.90;;;3.62;77.66;101005.22;4985148;28;20616;-63
2021/04/05 08:19:45;;;;;;;3.45;1.38;;;3.90;99.90;;;3.78;74.42;101010.78;5011539;28;20034;-62
2021/04/05 08:22:41;;;;;;;3.67;0.90;;;4.00;99.90;;;3.76;73.93;101034.31;5021741;28;20033;-65
2021/04/05 08:25:45;;;;;;;3.78;1.05;;;4.00;99.90;;;3.40;83.13;101032.53;5023740;28;20121;-64
2021/04/05 08:28:31;;;;;;;3.53;1.23;;;3.90;99.90;;;3.03;85.89;101033.44;5016955;28;20164;-63
2021/04/05 08:31:41;;;;;;;9.32;1.23;;;3.60;99.90;;;3.11;86.01;101022.78;4995106;28;20049;-62
2021/04/05 08:34:51;;;;;;;6.05;1.15;;;3.50;99.90;;;3.48;79.71;101014.69;5017073;28;20046;-64
2021/04/05 08:37:57;;;;;;;6.03;0.85;;;3.60;99.90;;;3.65;65.86;101032.69;5032323;28;20068;-63
2021/04/05 08:40:39;;;;;;;3.25;0.70;;;3.70;99.90;;;4.13;65.33;101025.28;5011592;28;20037;-65
2021/04/05 08:43:30;;;;;;;4.65;0.88;;;4.10;99.90;;;4.22;61.53;101035.13;5001307;28;20073;-65
2021/04/05 08:46:24;;;;;;;6.95;1.20;;;4.30;99.90;;;4.54;61.35;101040.78;5018114;28;20381;-68
2021/04/05 08:48:59;;;;;;;7.88;1.20;;;4.60;99.90;;;4.63;60.06;101034.44;5014846;28;20076;-69
2021/04/05 08:51:44;;;;;;;6.50;1.50;;;4.70;99.40;;;4.80;58.67;101056.97;5025671;28;20049;-65
2021/04/05 08:54:14;;;;;;;6.70;1.20;;;4.90;99.30;;;4.96;57.42;101054.41;5020150;28;20037;-63
2021/04/05 08:57:00;;;;;;;6.22;1.42;;;5.10;98.50;;;5.22;55.99;101046.28;5016593;28;20129;-63
2021/04/05 08:59:59;;;;;;;7.90;1.55;;;5.30;98.00;;;5.46;55.82;101059.88;5017223;28;20628;-66
2021/04/05 09:02:34;;;;;;;6.82;1.58;;;5.50;98.60;;;6.06;54.94;101050.84;5022511;28;20133;-65
2021/04/05 09:05:02;;;;;;;9.73;1.25;;;5.90;98.10;;;6.63;56.10;101054.41;5006247;28;20485;-63
2021/04/05 09:07:46;;;;;;;6.03;1.48;;;6.30;98.50;;;6.35;55.18;101051.19;5022272;28;20042;-59
2021/04/05 09:10:13;;;;;;;7.57;2.03;;;6.50;97.90;;;6.54;57.40;101047.34;5013381;28;20081;-66
2021/04/05 09:12:42;;;;;;;11.07;2.67;;;6.60;98.80;;;5.94;59.11;101074.63;5020262;28;20449;-61
2021/04/05 09:15:26;;;;;;;6.28;1.85;;;6.40;98.90;;;5.74;60.18;101082.13;5014785;28;20061;-64
2021/04/05 09:18:47;;;;;;;7.07;1.83;;;6.20;99.50;;;5.65;59.59;101084.94;5017270;28;20034;-65
2021/04/05 09:21:41;;;;;;;5.68;1.63;;;6.20;99.10;;;5.54;58.47;101087.91;5009799;28;20076;-64
2021/04/05 09:25:00;;;;;;;3.00;1.00;;;6.00;98.70;;;4.82;61.38;101098.13;5014203;28;20056;-64
2021/04/05 09:27:51;;;;;;;9.95;1.83;;;5.60;99.10;;;5.28;64.78;101099.63;5013708;28;20140;-63
2021/04/05 09:30:42;;;;;;;10.63;2.10;;;5.50;99.90;;;5.07;64.63;101116.19;5016581;28;20071;-63
2021/04/05 09:33:21;;;;;;;7.68;1.70;;;5.60;99.90;;;4.50;66.95;101131.06;5007172;28;20037;-64
2021/04/05 09:36:46;;;;;;;9.43;1.20;;;5.30;99.90;;;5.01;66.37;101114.09;5018783;28;20515;-64
2021/04/05 09:40:05;;;;;;;13.52;2.00;;;5.20;99.90;;;6.62;59.03;101101.41;5006201;28;20492;-64
2021/04/05 09:42:55;;;;;;;4.75;1.77;;;6.10;99.90;;;7.44;54.67;101097.59;5013536;28;20036;-62
2021/04/05 09:45:45;;;;;;;9.57;1.40;;;6.80;98.80;;;8.40;43.87;101104.59;5009595;28;20041;-67
2021/04/05 09:48:29;;;;;;;8.77;1.40;;;7.90;96.10;;;8.69;41.62;101119.13;5019436;28;20034;-65
2021/04/05 09:51:16;;;;;;;5.13;1.08;;;8.30;92.10;;;9.19;36.91;101127.69;5010199;28;20041;-62
2021/04/05 09:54:05;;;;;;;4.55;1.50;;;8.80;90.10;;;11.16;34.03;101130.16;5018841;28;20042;-62
2021/04/05 09:56:36;;;;;;;9.23;1.38;;;10.00;86.30;;;11.81;33.03;101126.22;5020274;28;20090;-64
2021/04/05 09:59:08;;;;;;;6.20;1.38;;;11.30;80.50;;;10.71;33.51;101130.56;5018685;28;20401;-63
2021/04/05 10:01:36;;;;;;;7.32;1.40;;;11.40;75.70;;;10.47;34.48;101151.69;5018426;28;20046;-61
2021/04/05 10:04:13;;;;;;;7.82;1.63;;;11.00;76.00;;;11.02;31.87;101122.91;5009077;28;20092;-63
2021/04/05 10:06:40;;;;;;;6.82;2.70;;;11.20;72.50;;;10.67;39.88;101161.94;5009872;28;20128;-63
2021/04/05 10:09:08;;;;;;;9.30;1.73;;;11.10;83.70;;;9.60;40.89;101152.56;5023205;28;20034;-63
2021/04/05 10:11:40;;;;;;;4.82;1.17;;;10.60;82.60;;;8.86;41.33;101155.16;5015363;28;20068;-65
2021/04/05 10:14:14;;;;;;;8.82;1.77;;;10.00;83.40;;;9.80;39.72;101164.59;5017779;28;20053;-62
2021/04/05 10:16:51;;;;;;;3.92;0.93;;;9.90;84.00;;;10.95;36.33;101171.00;5014486;28;20561;-63
2021/04/05 10:19:22;;;;;;;5.38;1.10;;;10.50;81.40;;;11.53;33.53;101177.16;5012736;28;20033;-63
2021/04/05 10:21:57;;;;;;;6.85;1.10;;;11.30;77.70;;;11.64;33.38;101166.56;5005540;28;20029;-62
2021/04/05 10:24:24;;;;;;;11.00;1.95;;;11.80;75.70;;;12.71;33.02;101179.69;5014414;28;20563;-63
2021/04/05 10:26:54;;;;;;;4.57;1.17;;;12.20;77.20;;;14.23;32.96;101180.47;5013943;28;21563;-62
2021/04/05 10:29:30;;;;;;;8.63;1.83;;;12.90;78.90;;;14.38;31.54;101182.97;5016340;28;20037;-61
2021/04/05 10:32:02;;;;;;;7.22;1.50;;;13.70;77.10;;;14.17;31.34;101175.88;5021290;28;20107;-62
2021/04/05 10:34:29;;;;;;;6.57;1.67;;;13.90;72.50;;;14.08;30.52;101178.03;5017710;28;20061;-62
2021/04/05 10:37:14;;;;;;;6.32;1.63;;;14.20;69.80;;;14.22;32.31;101169.78;5018689;28;20117;-60
2021/04/05 10:39:51;;;;;;;6.57;1.27;;;14.00;72.40;;;13.23;32.92;101168.03;5023280;28;20100;-60
2021/04/05 10:42:34;;;;;;;7.50;1.23;;;13.60;73.10;;;10.88;35.98;101175.56;5021874;28;20029;-62
2021/04/05 10:45:15;;;;;;;8.15;1.17;;;12.40;71.00;;;9.95;35.59;101168.13;5023070;28;20042;-62
2021/04/05 10:47:54;;;;;;;7.57;1.15;;;11.20;70.80;;;9.79;35.38;101169.19;5018975;28;20092;-65
2021/04/05 10:50:27;;;;;;;9.65;2.50;;;10.60;71.00;;;9.23;36.09;101172.50;5017271;28;20520;-65
2021/04/05 10:52:58;;;;;;;16.15;3.83;;;10.10;70.90;;;8.85;36.18;101191.47;5023384;28;20168;-63
2021/04/05 10:55:28;;;;;;;13.45;1.75;;;9.80;72.40;;;7.83;39.53;101178.91;5005740;28;20464;-61
2021/04/05 10:58:02;;;;;;;8.98;2.05;;;9.00;73.90;;;7.38;42.25;101190.34;5002855;28;20037;-61
2021/04/05 11:00:36;;;;;;;13.00;1.52;;;8.40;77.90;;;6.77;45.14;101186.28;5019095;28;20041;-62
2021/04/05 11:03:21;;;;;;;7.35;1.42;;;7.60;81.50;;;6.29;43.60;101207.81;5024993;28;20038;-62
2021/04/05 11:05:50;;;;;;;4.50;1.20;;;7.20;80.60;;;6.22;42.96;101201.34;5015627;28;20042;-61
2021/04/05 11:08:21;;;;;;;7.95;1.13;;;6.80;78.80;;;6.39;42.89;101186.91;5024821;28;20045;-63